createdAt,value
2023-04-06T00:02:14.343Z,84.21
2023-04-06T00:04:41.940Z,84.56
2023-04-06T00:07:10.382Z,84.71
2023-04-06T00:09:37.905Z,84.34
2023-04-06T00:12:05.902Z,83.31
2023-04-06T00:14:34.406Z,83.09
2023-04-06T00:17:03.495Z,83.16
2023-04-06T00:19:31.422Z,83.91
2023-04-06T00:21:59.096Z,85.11
2023-04-06T00:24:26.744Z,85.77
2023-04-06T00:26:54.932Z,85.56
2023-04-06T00:29:22.535Z,85.61
2023-04-06T00:31:50.503Z,85.20
2023-04-06T00:34:19.406Z,85.42
2023-04-06T00:36:47.003Z,86.32
2023-04-06T00:39:14.564Z,86.70
2023-04-06T00:41:51.282Z,87.58
2023-04-06T00:47:15.924Z,88.00
2023-04-06T00:49:48.724Z,87.88
2023-04-06T00:52:16.991Z,87.94
2023-04-06T00:54:47.561Z,87.78
2023-04-06T00:57:17.933Z,88.11
2023-04-06T00:59:47.760Z,87.58
2023-04-06T01:02:15.906Z,86.89
2023-04-06T01:04:49.972Z,86.60
2023-04-06T01:07:26.512Z,86.76
2023-04-06T01:10:05.929Z,86.45
2023-04-06T01:12:37.090Z,86.39
2023-04-06T01:15:09.150Z,86.91
2023-04-06T01:17:39.973Z,87.40
2023-04-06T01:20:14.455Z,88.31
2023-04-06T01:22:44.915Z,88.81
2023-04-06T01:25:13.924Z,89.13
2023-04-06T01:27:49.421Z,89.59
2023-04-06T01:30:24.280Z,89.46
2023-04-06T01:32:57.066Z,89.56
2023-04-06T01:35:38.367Z,89.53
2023-04-06T01:41:37.911Z,89.56
2023-04-06T01:44:06.895Z,89.53
2023-04-06T01:46:34.617Z,89.35
2023-04-06T01:49:04.901Z,89.09
2023-04-06T01:51:40.420Z,88.85
2023-04-06T01:54:13.929Z,88.70
2023-04-06T01:56:57.929Z,88.90
2023-04-06T01:59:31.587Z,89.68
2023-04-06T02:02:02.022Z,90.29
2023-04-06T02:04:31.306Z,90.36
2023-04-06T02:07:09.159Z,90.27
2023-04-06T02:09:40.913Z,89.87
2023-04-06T02:12:13.996Z,89.11
2023-04-06T02:14:42.912Z,88.59
2023-04-06T02:17:12.020Z,88.63
2023-04-06T02:19:39.532Z,89.55
2023-04-06T02:22:07.077Z,90.15
2023-04-06T02:24:34.910Z,90.48
2023-04-06T02:27:07.766Z,90.68
2023-04-06T02:29:35.396Z,90.50
2023-04-06T02:32:03.931Z,90.32
2023-04-06T02:34:34.575Z,90.00
2023-04-06T02:37:02.477Z,89.94
2023-04-06T02:39:31.415Z,90.13
2023-04-06T02:41:59.801Z,90.04
2023-04-06T02:44:29.139Z,90.10
2023-04-06T02:46:56.990Z,89.92
2023-04-06T02:49:26.706Z,89.33
2023-04-06T02:51:57.622Z,89.26
2023-04-06T02:54:30.241Z,89.20
2023-04-06T02:56:58.294Z,89.70
2023-04-06T02:59:36.038Z,89.80
2023-04-06T03:02:11.011Z,90.21
2023-04-06T03:04:38.979Z,90.48
2023-04-06T03:07:13.339Z,90.77
2023-04-06T03:09:41.528Z,91.06
2023-04-06T03:12:10.061Z,91.18
2023-04-06T03:14:56.804Z,91.23
2023-04-06T03:17:24.417Z,90.69
2023-04-06T03:19:51.996Z,90.63
2023-04-06T03:22:21.745Z,90.66
2023-04-06T03:24:49.745Z,91.16
2023-04-06T03:27:18.362Z,91.18
2023-04-06T03:29:47.914Z,91.06
2023-04-06T03:32:22.792Z,91.12
2023-04-06T03:34:50.432Z,91.38
2023-04-06T03:37:17.981Z,91.35
2023-04-06T03:39:53.919Z,91.85
2023-04-06T03:42:26.905Z,91.92
2023-04-06T03:45:01.863Z,91.77
2023-04-06T03:47:31.179Z,91.72
2023-04-06T03:50:04.068Z,91.72
2023-04-06T03:52:35.018Z,91.59
2023-04-06T03:55:07.883Z,91.75
2023-04-06T03:57:38.360Z,91.67
2023-04-06T04:00:07.007Z,91.74
2023-04-06T04:02:41.557Z,91.69
2023-04-06T04:05:09.997Z,91.89
2023-04-06T04:07:38.968Z,92.09
2023-04-06T04:10:09.016Z,92.70
2023-04-06T04:12:37.120Z,92.54
2023-04-06T04:15:05.482Z,92.65
2023-04-06T04:17:33.443Z,92.27
2023-04-06T04:20:02.405Z,92.28
2023-04-06T04:22:30.348Z,92.22
2023-04-06T04:24:58.201Z,91.81
2023-04-06T04:27:27.017Z,91.74
2023-04-06T04:29:55.901Z,91.70
2023-04-06T04:32:28.083Z,91.38
2023-04-06T04:34:57.276Z,91.37
2023-04-06T04:37:37.136Z,91.39
2023-04-06T04:40:07.253Z,91.20
2023-04-06T04:42:45.881Z,91.23
2023-04-06T04:45:21.805Z,91.11
2023-04-06T04:47:49.653Z,90.99
2023-04-06T04:50:19.105Z,90.80
2023-04-06T04:52:51.619Z,90.73
2023-04-06T04:55:23.219Z,91.08
2023-04-06T04:57:56.318Z,90.87
2023-04-06T05:00:32.613Z,91.24
2023-04-06T05:03:02.433Z,91.25
2023-04-06T05:05:32.659Z,91.26
2023-04-06T05:08:03.953Z,91.00
2023-04-06T05:10:45.272Z,91.25
2023-04-06T05:13:13.289Z,91.12
2023-04-06T05:15:41.173Z,91.10
2023-04-06T05:18:22.383Z,91.49
2023-04-06T05:20:50.731Z,91.39
2023-04-06T05:23:19.724Z,91.47
2023-04-06T05:25:48.638Z,91.91
2023-04-06T05:28:22.092Z,92.20
2023-04-06T05:30:49.760Z,92.58
2023-04-06T05:33:18.175Z,92.41
2023-04-06T05:36:02.138Z,92.81
2023-04-06T05:38:32.121Z,92.90
2023-04-06T05:41:06.467Z,92.93
2023-04-06T05:43:36.973Z,93.15
2023-04-06T05:46:06.476Z,93.40
2023-04-06T05:48:34.381Z,93.58
2023-04-06T05:51:07.024Z,93.60
2023-04-06T05:53:44.324Z,93.84
2023-04-06T05:56:12.441Z,94.19
2023-04-06T05:59:04.840Z,94.52
2023-04-06T06:01:33.321Z,94.88
2023-04-06T06:04:02.492Z,94.89
2023-04-06T06:06:33.515Z,95.12
2023-04-06T06:09:12.388Z,95.23
2023-04-06T06:11:45.894Z,95.11
2023-04-06T06:14:24.264Z,95.10
2023-04-06T06:16:51.812Z,95.08
2023-04-06T06:19:20.293Z,94.97
2023-04-06T06:21:50.731Z,95.32
2023-04-06T06:24:19.947Z,95.16
2023-04-06T06:26:49.914Z,95.35
2023-04-06T06:29:20.453Z,95.95
2023-04-06T06:31:48.055Z,96.16
2023-04-06T06:34:15.888Z,98.07
2023-04-06T06:36:48.350Z,99.12
2023-04-06T06:39:20.848Z,100.00
2023-04-06T06:41:51.848Z,99.64
2023-04-06T06:44:24.226Z,98.97
2023-04-06T06:46:53.976Z,97.76
2023-04-06T06:49:21.968Z,96.12
2023-04-06T06:51:50.004Z,94.19
2023-04-06T06:54:19.747Z,93.14
2023-04-06T06:56:49.977Z,92.05
2023-04-06T06:59:19.451Z,90.64
2023-04-06T07:01:47.932Z,88.60
2023-04-06T07:04:16.065Z,87.53
2023-04-06T07:06:43.658Z,86.55
2023-04-06T07:09:11.250Z,85.80
2023-04-06T07:11:40.701Z,84.29
2023-04-06T07:14:08.800Z,83.27
2023-04-06T07:16:36.842Z,82.74
2023-04-06T07:19:04.766Z,82.22
2023-04-06T07:21:32.432Z,81.54
2023-04-06T07:24:00.084Z,81.29
2023-04-06T07:26:27.921Z,81.50
2023-04-06T07:28:57.103Z,81.21
2023-04-06T07:31:56.921Z,79.65
2023-04-06T07:37:18.093Z,79.57
2023-04-06T07:39:47.425Z,79.56
2023-04-06T07:42:18.918Z,78.92
2023-04-06T07:44:50.648Z,75.05
2023-04-06T07:47:19.276Z,75.15
2023-04-06T07:49:47.139Z,68.91
2023-04-06T07:52:15.347Z,66.65
2023-04-06T07:54:44.029Z,67.12
2023-04-06T07:57:14.913Z,66.86
2023-04-06T07:59:45.646Z,64.78
2023-04-06T08:02:14.708Z,62.00
2023-04-06T08:04:46.145Z,60.96
2023-04-06T08:07:14.290Z,58.90
2023-04-06T08:09:42.287Z,59.57
2023-04-06T08:12:10.162Z,59.26
2023-04-06T08:14:37.775Z,60.07
2023-04-06T08:17:06.587Z,59.59
2023-04-06T08:19:35.575Z,58.79
2023-04-06T08:22:03.367Z,57.79
2023-04-06T08:24:33.973Z,60.01
2023-04-06T08:27:01.619Z,59.99
2023-04-06T08:29:29.425Z,59.70
2023-04-06T08:31:57.299Z,59.62
2023-04-06T08:34:25.028Z,58.65
2023-04-06T08:36:54.076Z,57.59
2023-04-06T08:39:26.188Z,53.87
2023-04-06T08:41:57.856Z,54.59
2023-04-06T08:44:26.056Z,53.59
2023-04-06T08:46:54.046Z,53.49
2023-04-06T08:49:22.903Z,53.40
2023-04-06T08:51:51.414Z,55.07
2023-04-06T08:54:20.979Z,54.72
2023-04-06T08:56:50.297Z,52.82
2023-04-06T08:59:18.933Z,52.32
2023-04-06T09:01:47.691Z,51.70
2023-04-06T09:04:16.009Z,52.76
2023-04-06T09:06:44.902Z,53.74
2023-04-06T09:09:12.658Z,53.27
2023-04-06T09:11:49.974Z,49.42
2023-04-06T09:14:36.142Z,51.71
2023-04-06T09:17:06.020Z,52.63
2023-04-06T09:19:34.977Z,51.05
2023-04-06T09:22:05.535Z,50.98
2023-04-06T09:24:42.434Z,49.23
2023-04-06T09:27:11.316Z,48.27
2023-04-06T09:29:39.925Z,49.62
2023-04-06T09:32:11.320Z,49.92
2023-04-06T09:34:39.594Z,50.31
2023-04-06T09:37:17.187Z,47.99
2023-04-06T09:39:45.890Z,48.70
2023-04-06T09:42:26.700Z,48.39
2023-04-06T09:44:54.536Z,47.78
2023-04-06T09:47:24.811Z,48.30
2023-04-06T09:49:57.931Z,48.13
2023-04-06T09:52:33.534Z,45.74
2023-04-06T09:55:04.985Z,45.94
2023-04-06T09:57:39.985Z,46.47
2023-04-06T10:00:12.975Z,48.17
2023-04-06T10:02:46.351Z,49.04
2023-04-06T10:05:22.914Z,46.92
2023-04-06T10:08:00.212Z,46.40
2023-04-06T10:10:29.587Z,45.76
2023-04-06T10:12:59.461Z,46.71
2023-04-06T10:15:54.129Z,47.64
2023-04-06T10:18:22.575Z,47.01
2023-04-06T10:20:53.367Z,42.70
2023-04-06T10:23:24.795Z,43.95
2023-04-06T10:25:57.057Z,45.75
2023-04-06T10:28:32.139Z,42.45
2023-04-06T10:31:00.940Z,44.12
2023-04-06T10:33:58.449Z,44.73
2023-04-06T10:36:27.484Z,44.36
2023-04-06T10:39:00.140Z,43.75
2023-04-06T10:41:35.026Z,43.45
2023-04-06T10:44:04.660Z,43.36
2023-04-06T10:46:33.355Z,43.20
2023-04-06T10:49:13.223Z,40.34
2023-04-06T10:51:41.416Z,40.25
2023-04-06T10:54:09.421Z,39.53
2023-04-06T10:56:39.735Z,41.32
2023-04-06T10:59:09.242Z,41.95
2023-04-06T11:01:37.511Z,41.40
2023-04-06T11:04:05.565Z,40.20
2023-04-06T11:06:33.542Z,42.56
2023-04-06T11:09:01.220Z,42.54
2023-04-06T11:14:23.803Z,40.51
2023-04-06T11:16:52.606Z,39.62
2023-04-06T11:19:46.956Z,40.49
2023-04-06T11:22:16.334Z,38.81
2023-04-06T11:24:44.083Z,39.95
2023-04-06T11:27:11.921Z,41.48
2023-04-06T11:29:41.756Z,41.02
2023-04-06T11:32:09.517Z,41.38
2023-04-06T11:34:39.550Z,41.53
2023-04-06T11:37:10.137Z,41.30
2023-04-06T11:39:41.276Z,41.67
2023-04-06T11:42:09.584Z,41.90
2023-04-06T11:44:39.906Z,41.03
2023-04-06T11:47:11.943Z,41.56
2023-04-06T11:49:40.980Z,39.99
2023-04-06T11:52:17.434Z,39.48
2023-04-06T11:54:45.137Z,38.54
2023-04-06T11:57:14.307Z,37.65
2023-04-06T11:59:41.958Z,38.96
2023-04-06T12:02:10.969Z,38.21
2023-04-06T12:04:40.050Z,38.05
2023-04-06T12:07:07.995Z,37.69
2023-04-06T12:09:36.909Z,38.10
2023-04-06T12:12:04.758Z,39.05
2023-04-06T12:14:32.998Z,37.70
2023-04-06T12:17:01.340Z,37.16
2023-04-06T12:19:34.012Z,38.03
2023-04-06T12:22:05.303Z,39.17
2023-04-06T12:24:33.488Z,38.89
2023-04-06T12:27:09.419Z,38.87
2023-04-06T12:29:38.554Z,38.29
2023-04-06T12:32:06.274Z,39.16
2023-04-06T12:34:35.874Z,39.33
2023-04-06T12:37:03.471Z,37.42
2023-04-06T12:39:31.808Z,38.41
2023-04-06T12:42:00.971Z,38.36
2023-04-06T12:44:29.351Z,39.11
2023-04-06T12:46:57.959Z,38.92
2023-04-06T12:49:26.439Z,38.00
2023-04-06T12:51:56.315Z,38.78
2023-04-06T12:54:23.896Z,38.03
2023-04-06T12:56:51.482Z,36.99
2023-04-06T12:59:19.162Z,35.48
2023-04-06T13:01:46.851Z,36.23
2023-04-06T13:04:14.569Z,35.67
2023-04-06T13:06:43.046Z,35.06
2023-04-06T13:09:13.952Z,36.45
2023-04-06T13:11:42.327Z,35.92
2023-04-06T13:14:10.074Z,34.98
2023-04-06T13:16:38.585Z,35.10
2023-04-06T13:19:06.279Z,35.37
2023-04-06T13:21:34.323Z,33.33
2023-04-06T13:24:02.017Z,35.43
2023-04-06T13:26:30.977Z,36.59
2023-04-06T13:29:01.745Z,36.62
2023-04-06T13:31:29.291Z,36.00
2023-04-06T13:33:57.594Z,35.80
2023-04-06T13:36:25.651Z,36.46
2023-04-06T13:38:56.132Z,36.75
2023-04-06T13:41:26.410Z,36.79
2023-04-06T13:43:55.590Z,36.60
2023-04-06T13:46:25.059Z,36.84
2023-04-06T13:48:52.843Z,37.41
2023-04-06T13:51:20.968Z,36.32
2023-04-06T13:53:51.175Z,35.53
2023-04-06T13:56:19.330Z,36.56
2023-04-06T13:58:46.896Z,37.18
2023-04-06T14:01:15.927Z,37.24
2023-04-06T14:03:46.411Z,37.05
2023-04-06T14:06:29.522Z,37.45
2023-04-06T14:08:58.580Z,38.25
2023-04-06T14:11:27.177Z,38.51
2023-04-06T14:14:20.314Z,39.01
2023-04-06T14:16:49.595Z,38.69
2023-04-06T14:19:19.756Z,38.07
2023-04-06T14:21:47.930Z,38.67
2023-04-06T14:24:16.845Z,38.03
2023-04-06T14:26:45.179Z,38.74
2023-04-06T14:29:13.364Z,38.73
2023-04-06T14:31:41.066Z,39.55
2023-04-06T14:34:09.949Z,39.36
2023-04-06T14:36:39.172Z,39.15
2023-04-06T14:39:08.070Z,38.32
2023-04-06T14:41:36.231Z,38.46
2023-04-06T14:44:04.673Z,39.36
2023-04-06T14:46:34.489Z,39.30
2023-04-06T14:49:02.232Z,39.62
2023-04-06T14:51:32.209Z,39.63
2023-04-06T14:54:03.785Z,39.51
2023-04-06T14:56:32.135Z,40.59
2023-04-06T14:59:00.402Z,41.36
2023-04-06T15:01:29.550Z,41.20
2023-04-06T15:03:57.357Z,41.34
2023-04-06T15:06:25.028Z,41.21
2023-04-06T15:08:55.494Z,39.96
2023-04-06T15:11:24.019Z,40.23
2023-04-06T15:13:54.013Z,40.60
2023-04-06T15:16:21.631Z,40.62
2023-04-06T15:18:49.374Z,41.58
2023-04-06T15:21:17.008Z,42.32
2023-04-06T15:23:44.739Z,42.89
2023-04-06T15:26:15.057Z,42.88
2023-04-06T15:28:44.677Z,43.13
2023-04-06T15:31:28.325Z,42.96
2023-04-06T15:34:04.025Z,43.28
2023-04-06T15:36:31.950Z,43.94
2023-04-06T15:39:01.019Z,44.27
2023-04-06T15:41:31.935Z,44.47
2023-04-06T15:43:59.946Z,44.81
2023-04-06T15:46:28.911Z,45.08
2023-04-06T15:48:57.110Z,44.52
2023-04-06T15:51:26.128Z,44.52
2023-04-06T15:53:53.841Z,44.92
2023-04-06T15:56:21.636Z,45.83
2023-04-06T15:58:50.793Z,46.00
2023-04-06T16:01:20.004Z,46.00
2023-04-06T16:03:48.222Z,46.16
2023-04-06T16:06:15.942Z,46.77
2023-04-06T16:08:43.572Z,46.63
2023-04-06T16:11:11.684Z,46.18
2023-04-06T16:13:39.577Z,46.51
2023-04-06T16:16:09.759Z,46.36
2023-04-06T16:18:37.398Z,45.55
2023-04-06T16:21:05.374Z,46.24
2023-04-06T16:23:34.601Z,46.30
2023-04-06T16:26:03.019Z,46.28
2023-04-06T16:28:31.364Z,46.58
2023-04-06T16:31:02.468Z,46.83
2023-04-06T16:33:31.372Z,46.94
2023-04-06T16:35:59.088Z,47.65
2023-04-06T16:38:31.543Z,47.79
2023-04-06T16:41:02.747Z,47.82
2023-04-06T16:43:30.968Z,48.17
2023-04-06T16:45:59.587Z,47.97
2023-04-06T16:48:28.037Z,48.44
2023-04-06T16:50:57.265Z,49.24
2023-04-06T16:53:24.936Z,49.17
2023-04-06T16:55:52.501Z,49.39
2023-04-06T16:58:20.082Z,49.62
2023-04-06T17:00:47.648Z,49.81
2023-04-06T17:03:15.645Z,50.35
2023-04-06T17:05:45.152Z,50.50
2023-04-06T17:08:15.108Z,51.06
2023-04-06T17:13:40.163Z,52.16
2023-04-06T17:16:08.266Z,52.93
2023-04-06T17:18:36.304Z,53.61
2023-04-06T17:21:06.949Z,54.36
2023-04-06T17:23:35.925Z,54.85
2023-04-06T17:26:05.711Z,55.66
2023-04-06T17:28:35.525Z,57.10
2023-04-06T17:31:03.126Z,58.08
2023-04-06T17:33:32.425Z,59.01
2023-04-06T17:35:59.976Z,60.37
2023-04-06T17:38:27.867Z,61.54
2023-04-06T17:40:56.800Z,62.61
2023-04-06T17:43:24.515Z,63.94
2023-04-06T17:45:52.430Z,65.42
2023-04-06T17:48:21.008Z,66.75
2023-04-06T17:50:48.955Z,67.73
2023-04-06T17:53:18.742Z,68.68
2023-04-06T17:55:47.525Z,69.57
2023-04-06T17:58:16.824Z,70.94
2023-04-06T18:00:45.017Z,71.88
2023-04-06T18:03:12.616Z,72.79
2023-04-06T18:05:40.516Z,74.40
2023-04-06T18:08:08.096Z,75.54
2023-04-06T18:10:39.995Z,76.94
2023-04-06T18:13:08.485Z,77.99
2023-04-06T18:15:38.325Z,79.22
2023-04-06T18:18:07.306Z,80.01
2023-04-06T18:20:34.886Z,80.72
2023-04-06T18:23:02.484Z,81.33
2023-04-06T18:25:29.989Z,81.68
2023-04-06T18:27:57.525Z,81.97
2023-04-06T18:30:25.399Z,82.39
2023-04-06T18:32:54.350Z,83.24
2023-04-06T18:35:25.951Z,83.97
2023-04-06T18:37:55.972Z,84.43
2023-04-06T18:40:34.443Z,85.61
2023-04-06T18:43:03.265Z,85.54
2023-04-06T18:45:33.106Z,85.59
2023-04-06T18:48:03.258Z,85.54
2023-04-06T18:50:31.631Z,86.02
2023-04-06T18:52:59.182Z,86.15
2023-04-06T18:55:27.089Z,86.45
2023-04-06T18:57:54.986Z,86.65
2023-04-06T19:00:22.539Z,87.54
2023-04-06T19:02:50.192Z,88.13
2023-04-06T19:05:22.118Z,88.75
2023-04-06T19:07:52.391Z,89.49
2023-04-06T19:10:21.305Z,90.46
2023-04-06T19:12:52.296Z,91.42
2023-04-06T19:15:20.393Z,92.04
2023-04-06T19:17:48.044Z,92.57
2023-04-06T19:20:15.774Z,93.72
2023-04-06T19:22:45.637Z,94.24
2023-04-06T19:25:13.894Z,95.50
2023-04-06T19:27:41.918Z,96.06
2023-04-06T19:30:11.998Z,96.95
2023-04-06T19:32:41.126Z,97.27
2023-04-06T19:35:09.506Z,97.35
2023-04-06T19:37:37.950Z,97.80
2023-04-06T19:40:10.383Z,98.50
2023-04-06T19:42:38.626Z,99.06
2023-04-06T19:45:08.038Z,99.54
2023-04-06T19:47:35.858Z,99.99
2023-04-06T19:50:03.605Z,100.00
2023-04-06T19:52:32.562Z,100.00
2023-04-06T19:55:00.522Z,100.00
2023-04-06T19:57:30.056Z,100.00
2023-04-06T19:59:57.782Z,100.00
2023-04-06T20:02:25.537Z,100.00
2023-04-06T20:04:53.347Z,100.00
2023-04-06T20:07:20.973Z,100.00
2023-04-06T20:09:48.561Z,100.00
2023-04-06T20:12:16.144Z,100.00
2023-04-06T20:14:45.090Z,100.00
2023-04-06T20:17:12.629Z,100.00
2023-04-06T20:19:40.197Z,100.00
2023-04-06T20:22:07.787Z,100.00
2023-04-06T20:24:35.407Z,100.00
2023-04-06T20:27:03.074Z,100.00
2023-04-06T20:29:30.664Z,100.00
2023-04-06T20:32:01.326Z,100.00
2023-04-06T20:34:29.658Z,100.00
2023-04-06T20:36:57.940Z,100.00
2023-04-06T20:39:27.241Z,100.00
2023-04-06T20:41:54.939Z,100.00
2023-04-06T20:44:22.563Z,100.00
2023-04-06T20:46:50.273Z,100.00
2023-04-06T20:49:21.990Z,100.00
2023-04-06T20:51:49.962Z,100.00
2023-04-06T20:54:17.685Z,100.00
2023-04-06T20:56:46.166Z,100.00
2023-04-06T20:59:13.800Z,100.00
2023-04-06T21:01:41.779Z,100.00
2023-04-06T21:04:10.098Z,100.00
2023-04-06T21:06:40.174Z,100.00
2023-04-06T21:09:07.896Z,100.00
2023-04-06T21:11:35.421Z,100.00
2023-04-06T21:14:03.255Z,100.00
2023-04-06T21:16:30.854Z,100.00
2023-04-06T21:18:59.354Z,100.00
2023-04-06T21:21:26.878Z,100.00
2023-04-06T21:23:56.422Z,100.00
2023-04-06T21:26:25.039Z,100.00
2023-04-06T21:28:52.576Z,100.00
2023-04-06T21:31:21.400Z,100.00
2023-04-06T21:33:49.214Z,100.00
2023-04-06T21:36:16.969Z,100.00
2023-04-06T21:38:44.702Z,100.00
2023-04-06T21:41:13.777Z,100.00
2023-04-06T21:43:41.348Z,100.00
2023-04-06T21:46:08.918Z,100.00
2023-04-06T21:48:36.485Z,100.00
2023-04-06T21:51:04.616Z,100.00
2023-04-06T21:53:32.537Z,100.00
2023-04-06T21:56:00.814Z,100.00
2023-04-06T21:58:29.720Z,100.00
2023-04-06T22:00:58.423Z,100.00
2023-04-06T22:03:26.282Z,100.00
2023-04-06T22:05:54.063Z,100.00
2023-04-06T22:08:33.691Z,100.00
2023-04-06T22:11:02.007Z,100.00
2023-04-06T22:13:32.711Z,100.00
2023-04-06T22:16:00.282Z,100.00
2023-04-06T22:18:28.131Z,100.00
2023-04-06T22:20:56.072Z,100.00
2023-04-06T22:23:23.794Z,100.00
2023-04-06T22:25:51.476Z,100.00
2023-04-06T22:28:19.138Z,100.00
2023-04-06T22:30:50.044Z,100.00
2023-04-06T22:33:17.953Z,100.00
2023-04-06T22:38:37.981Z,100.00
2023-04-06T22:41:07.167Z,100.00
2023-04-06T22:43:36.027Z,100.00
2023-04-06T22:46:05.472Z,100.00
2023-04-06T22:48:33.059Z,100.00
2023-04-06T22:51:01.051Z,100.00
2023-04-06T22:53:28.947Z,100.00
2023-04-06T22:55:56.632Z,100.00
2023-04-06T22:58:24.973Z,100.00
2023-04-06T23:00:53.027Z,100.00
2023-04-06T23:03:23.018Z,100.00
2023-04-06T23:05:51.950Z,100.00
2023-04-06T23:08:23.365Z,100.00
2023-04-06T23:10:52.984Z,100.00
2023-04-06T23:13:20.502Z,100.00
2023-04-06T23:15:48.962Z,100.00
2023-04-06T23:18:16.866Z,100.00
2023-04-06T23:20:46.017Z,100.00
2023-04-06T23:23:14.034Z,100.00
2023-04-06T23:25:41.561Z,100.00
2023-04-06T23:28:09.288Z,100.00
2023-04-06T23:30:36.819Z,100.00
2023-04-06T23:33:05.494Z,100.00
2023-04-06T23:35:33.466Z,100.00
2023-04-06T23:38:02.739Z,100.00
2023-04-06T23:40:30.405Z,100.00
2023-04-06T23:42:58.020Z,100.00
2023-04-06T23:45:25.931Z,100.00
2023-04-06T23:47:54.403Z,100.00
2023-04-06T23:50:22.144Z,100.00
2023-04-06T23:52:50.540Z,100.00
2023-04-06T23:55:19.910Z,100.00
2023-04-06T23:57:49.153Z,100.00
